sensor_id;sensor_type;location;lat;lon;timestamp;P1;durP1;ratioP1;P2;durP2;ratioP2
27728;SDS011;15126;42.186;24.340;2023-06-26T00:01:28;13.77;;;10.00;;
27728;SDS011;15126;42.186;24.340;2023-06-26T00:03:56;11.00;;;9.17;;
27728;SDS011;15126;42.186;24.340;2023-06-26T00:06:25;12.30;;;9.90;;
27728;SDS011;15126;42.186;24.340;2023-06-26T00:08:52;12.07;;;10.10;;
27728;SDS011;15126;42.186;24.340;2023-06-26T00:11:20;11.03;;;9.97;;
27728;SDS011;15126;42.186;24.340;2023-06-26T00:13:47;11.10;;;9.50;;
27728;SDS011;15126;42.186;24.340;2023-06-26T00:16:14;22.43;;;10.63;;
27728;SDS011;15126;42.186;24.340;2023-06-26T00:18:41;15.47;;;11.13;;
27728;SDS011;15126;42.186;24.340;2023-06-26T00:21:08;11.27;;;10.07;;
27728;SDS011;15126;42.186;24.340;2023-06-26T00:23:36;10.37;;;8.67;;
27728;SDS011;15126;42.186;24.340;2023-06-26T00:26:03;10.97;;;9.87;;
27728;SDS011;15126;42.186;24.340;2023-06-26T00:28:30;13.80;;;11.13;;
27728;SDS011;15126;42.186;24.340;2023-06-26T00:30:57;12.43;;;11.00;;
27728;SDS011;15126;42.186;24.340;2023-06-26T00:33:24;12.10;;;10.87;;
27728;SDS011;15126;42.186;24.340;2023-06-26T00:35:51;11.93;;;10.60;;
27728;SDS011;15126;42.186;24.340;2023-06-26T00:38:17;17.77;;;10.17;;
27728;SDS011;15126;42.186;24.340;2023-06-26T00:40:45;11.77;;;10.60;;
27728;SDS011;15126;42.186;24.340;2023-06-26T00:43:12;16.03;;;11.40;;
27728;SDS011;15126;42.186;24.340;2023-06-26T00:45:39;13.97;;;10.50;;
27728;SDS011;15126;42.186;24.340;2023-06-26T00:48:06;17.17;;;12.30;;
27728;SDS011;15126;42.186;24.340;2023-06-26T00:50:33;12.70;;;10.83;;
27728;SDS011;15126;42.186;24.340;2023-06-26T00:53:00;14.80;;;11.43;;
27728;SDS011;15126;42.186;24.340;2023-06-26T00:55:26;15.47;;;12.37;;
27728;SDS011;15126;42.186;24.340;2023-06-26T00:57:55;14.90;;;12.60;;
27728;SDS011;15126;42.186;24.340;2023-06-26T01:00:22;12.80;;;10.80;;
27728;SDS011;15126;42.186;24.340;2023-06-26T01:02:51;12.67;;;11.40;;
27728;SDS011;15126;42.186;24.340;2023-06-26T01:05:18;14.00;;;12.60;;
27728;SDS011;15126;42.186;24.340;2023-06-26T01:07:47;14.10;;;12.60;;
27728;SDS011;15126;42.186;24.340;2023-06-26T01:10:14;12.97;;;11.77;;
27728;SDS011;15126;42.186;24.340;2023-06-26T01:12:41;14.23;;;12.87;;
27728;SDS011;15126;42.186;24.340;2023-06-26T01:15:10;16.50;;;12.77;;
27728;SDS011;15126;42.186;24.340;2023-06-26T01:17:37;15.10;;;12.27;;
27728;SDS011;15126;42.186;24.340;2023-06-26T01:20:06;17.80;;;14.47;;
27728;SDS011;15126;42.186;24.340;2023-06-26T01:22:36;16.77;;;14.17;;
27728;SDS011;15126;42.186;24.340;2023-06-26T01:25:12;18.40;;;14.13;;
27728;SDS011;15126;42.186;24.340;2023-06-26T01:27:50;21.53;;;14.80;;
27728;SDS011;15126;42.186;24.340;2023-06-26T01:30:19;14.33;;;12.83;;
27728;SDS011;15126;42.186;24.340;2023-06-26T01:32:47;16.87;;;15.17;;
27728;SDS011;15126;42.186;24.340;2023-06-26T01:35:15;17.20;;;14.43;;
27728;SDS011;15126;42.186;24.340;2023-06-26T01:37:43;16.53;;;14.80;;
27728;SDS011;15126;42.186;24.340;2023-06-26T01:40:10;17.27;;;15.57;;
27728;SDS011;15126;42.186;24.340;2023-06-26T01:42:37;17.47;;;15.77;;
27728;SDS011;15126;42.186;24.340;2023-06-26T01:45:07;17.60;;;15.90;;
27728;SDS011;15126;42.186;24.340;2023-06-26T01:47:39;17.17;;;15.37;;
27728;SDS011;15126;42.186;24.340;2023-06-26T01:50:11;18.23;;;15.30;;
27728;SDS011;15126;42.186;24.340;2023-06-26T01:52:45;18.90;;;16.97;;
27728;SDS011;15126;42.186;24.340;2023-06-26T01:55:20;17.13;;;15.13;;
27728;SDS011;15126;42.186;24.340;2023-06-26T01:57:54;16.30;;;14.60;;
27728;SDS011;15126;42.186;24.340;2023-06-26T02:00:25;17.00;;;15.23;;
27728;SDS011;15126;42.186;24.340;2023-06-26T02:02:53;18.40;;;15.20;;
27728;SDS011;15126;42.186;24.340;2023-06-26T02:05:20;17.33;;;14.33;;
27728;SDS011;15126;42.186;24.340;2023-06-26T02:07:48;16.07;;;14.53;;
27728;SDS011;15126;42.186;24.340;2023-06-26T02:10:16;17.63;;;14.27;;
27728;SDS011;15126;42.186;24.340;2023-06-26T02:12:43;15.83;;;14.23;;
27728;SDS011;15126;42.186;24.340;2023-06-26T02:15:10;16.30;;;14.60;;
27728;SDS011;15126;42.186;24.340;2023-06-26T02:17:38;16.07;;;14.43;;
27728;SDS011;15126;42.186;24.340;2023-06-26T02:20:05;16.23;;;14.53;;
27728;SDS011;15126;42.186;24.340;2023-06-26T02:22:34;17.43;;;14.60;;
27728;SDS011;15126;42.186;24.340;2023-06-26T02:25:01;16.70;;;14.60;;
27728;SDS011;15126;42.186;24.340;2023-06-26T02:27:28;17.53;;;15.30;;
27728;SDS011;15126;42.186;24.340;2023-06-26T02:29:54;15.63;;;13.90;;
27728;SDS011;15126;42.186;24.340;2023-06-26T02:32:21;19.63;;;15.97;;
27728;SDS011;15126;42.186;24.340;2023-06-26T02:34:49;20.00;;;15.07;;
27728;SDS011;15126;42.186;24.340;2023-06-26T02:37:18;15.70;;;14.10;;
27728;SDS011;15126;42.186;24.340;2023-06-26T02:39:47;16.90;;;14.83;;
27728;SDS011;15126;42.186;24.340;2023-06-26T02:42:14;17.80;;;14.37;;
27728;SDS011;15126;42.186;24.340;2023-06-26T02:44:41;15.40;;;13.80;;
27728;SDS011;15126;42.186;24.340;2023-06-26T02:47:07;16.73;;;14.97;;
27728;SDS011;15126;42.186;24.340;2023-06-26T02:49:34;16.67;;;15.17;;
27728;SDS011;15126;42.186;24.340;2023-06-26T02:52:02;16.30;;;14.60;;
27728;SDS011;15126;42.186;24.340;2023-06-26T02:54:30;18.10;;;15.47;;
27728;SDS011;15126;42.186;24.340;2023-06-26T02:56:57;17.03;;;15.43;;
27728;SDS011;15126;42.186;24.340;2023-06-26T02:59:24;20.83;;;18.23;;
27728;SDS011;15126;42.186;24.340;2023-06-26T03:01:51;21.67;;;19.00;;
27728;SDS011;15126;42.186;24.340;2023-06-26T03:04:18;19.33;;;17.60;;
27728;SDS011;15126;42.186;24.340;2023-06-26T03:06:46;18.60;;;16.77;;
27728;SDS011;15126;42.186;24.340;2023-06-26T03:09:14;18.43;;;16.50;;
27728;SDS011;15126;42.186;24.340;2023-06-26T03:11:42;17.87;;;16.00;;
27728;SDS011;15126;42.186;24.340;2023-06-26T03:14:08;20.30;;;17.00;;
27728;SDS011;15126;42.186;24.340;2023-06-26T03:16:35;18.77;;;16.73;;
27728;SDS011;15126;42.186;24.340;2023-06-26T03:19:02;20.60;;;18.67;;
27728;SDS011;15126;42.186;24.340;2023-06-26T03:21:29;22.83;;;16.67;;
27728;SDS011;15126;42.186;24.340;2023-06-26T03:23:56;21.00;;;18.93;;
27728;SDS011;15126;42.186;24.340;2023-06-26T03:26:24;19.87;;;18.07;;
27728;SDS011;15126;42.186;24.340;2023-06-26T03:28:52;24.03;;;19.37;;
27728;SDS011;15126;42.186;24.340;2023-06-26T03:31:19;21.47;;;18.70;;
27728;SDS011;15126;42.186;24.340;2023-06-26T03:33:46;21.33;;;19.10;;
27728;SDS011;15126;42.186;24.340;2023-06-26T03:36:13;19.37;;;17.47;;
27728;SDS011;15126;42.186;24.340;2023-06-26T03:38:40;20.07;;;18.17;;
27728;SDS011;15126;42.186;24.340;2023-06-26T03:41:07;20.40;;;18.20;;
27728;SDS011;15126;42.186;24.340;2023-06-26T03:43:36;20.53;;;18.53;;
27728;SDS011;15126;42.186;24.340;2023-06-26T03:46:02;18.97;;;16.97;;
27728;SDS011;15126;42.186;24.340;2023-06-26T03:48:29;21.20;;;19.00;;
27728;SDS011;15126;42.186;24.340;2023-06-26T03:50:56;19.83;;;17.83;;
27728;SDS011;15126;42.186;24.340;2023-06-26T03:53:23;20.90;;;18.67;;
27728;SDS011;15126;42.186;24.340;2023-06-26T03:55:49;20.60;;;18.20;;
27728;SDS011;15126;42.186;24.340;2023-06-26T03:58:17;24.30;;;21.50;;
27728;SDS011;15126;42.186;24.340;2023-06-26T04:00:45;19.07;;;17.27;;
27728;SDS011;15126;42.186;24.340;2023-06-26T04:03:12;19.60;;;17.80;;
27728;SDS011;15126;42.186;24.340;2023-06-26T04:05:39;19.90;;;17.83;;
27728;SDS011;15126;42.186;24.340;2023-06-26T04:08:05;20.37;;;18.27;;
27728;SDS011;15126;42.186;24.340;2023-06-26T04:10:32;20.40;;;18.03;;
27728;SDS011;15126;42.186;24.340;2023-06-26T04:12:59;22.47;;;17.53;;
27728;SDS011;15126;42.186;24.340;2023-06-26T04:15:26;19.43;;;17.23;;
27728;SDS011;15126;42.186;24.340;2023-06-26T04:17:54;19.87;;;17.00;;
27728;SDS011;15126;42.186;24.340;2023-06-26T04:20:20;19.50;;;17.43;;
27728;SDS011;15126;42.186;24.340;2023-06-26T04:22:47;19.53;;;17.53;;
27728;SDS011;15126;42.186;24.340;2023-06-26T04:25:14;18.43;;;16.70;;
27728;SDS011;15126;42.186;24.340;2023-06-26T04:27:41;19.33;;;17.57;;
27728;SDS011;15126;42.186;24.340;2023-06-26T04:30:08;20.10;;;18.00;;
27728;SDS011;15126;42.186;24.340;2023-06-26T04:32:37;20.07;;;17.37;;
27728;SDS011;15126;42.186;24.340;2023-06-26T04:35:05;20.97;;;18.77;;
27728;SDS011;15126;42.186;24.340;2023-06-26T04:37:33;20.20;;;16.67;;
27728;SDS011;15126;42.186;24.340;2023-06-26T04:40:03;18.87;;;17.07;;
27728;SDS011;15126;42.186;24.340;2023-06-26T04:42:30;22.10;;;17.77;;
27728;SDS011;15126;42.186;24.340;2023-06-26T04:44:57;22.83;;;16.70;;
27728;SDS011;15126;42.186;24.340;2023-06-26T04:47:24;23.17;;;18.30;;
27728;SDS011;15126;42.186;24.340;2023-06-26T04:49:50;20.83;;;18.83;;
27728;SDS011;15126;42.186;24.340;2023-06-26T04:52:19;22.10;;;18.77;;
27728;SDS011;15126;42.186;24.340;2023-06-26T04:54:45;19.03;;;17.40;;
27728;SDS011;15126;42.186;24.340;2023-06-26T04:57:12;19.60;;;17.63;;
27728;SDS011;15126;42.186;24.340;2023-06-26T04:59:40;18.33;;;16.47;;
27728;SDS011;15126;42.186;24.340;2023-06-26T05:02:06;19.40;;;17.53;;
27728;SDS011;15126;42.186;24.340;2023-06-26T05:04:33;17.37;;;15.67;;
27728;SDS011;15126;42.186;24.340;2023-06-26T05:07:00;17.23;;;15.67;;
27728;SDS011;15126;42.186;24.340;2023-06-26T05:09:28;17.73;;;16.13;;
27728;SDS011;15126;42.186;24.340;2023-06-26T05:11:55;19.47;;;16.37;;
27728;SDS011;15126;42.186;24.340;2023-06-26T05:14:21;18.53;;;16.43;;
27728;SDS011;15126;42.186;24.340;2023-06-26T05:16:48;22.33;;;17.20;;
27728;SDS011;15126;42.186;24.340;2023-06-26T05:19:15;17.17;;;15.43;;
27728;SDS011;15126;42.186;24.340;2023-06-26T05:21:42;17.47;;;15.97;;
27728;SDS011;15126;42.186;24.340;2023-06-26T05:24:09;16.60;;;14.63;;
27728;SDS011;15126;42.186;24.340;2023-06-26T05:26:40;17.30;;;14.80;;
27728;SDS011;15126;42.186;24.340;2023-06-26T05:29:08;18.87;;;15.13;;
27728;SDS011;15126;42.186;24.340;2023-06-26T05:31:35;16.80;;;15.23;;
27728;SDS011;15126;42.186;24.340;2023-06-26T05:34:07;18.00;;;15.27;;
27728;SDS011;15126;42.186;24.340;2023-06-26T05:36:37;16.97;;;15.40;;
27728;SDS011;15126;42.186;24.340;2023-06-26T05:39:07;15.80;;;14.33;;
27728;SDS011;15126;42.186;24.340;2023-06-26T05:41:35;16.73;;;15.03;;
27728;SDS011;15126;42.186;24.340;2023-06-26T05:44:03;17.97;;;15.20;;
27728;SDS011;15126;42.186;24.340;2023-06-26T05:46:30;15.20;;;13.80;;
27728;SDS011;15126;42.186;24.340;2023-06-26T05:48:57;16.07;;;14.43;;
27728;SDS011;15126;42.186;24.340;2023-06-26T05:51:24;15.03;;;13.63;;
27728;SDS011;15126;42.186;24.340;2023-06-26T05:53:51;16.10;;;14.43;;
27728;SDS011;15126;42.186;24.340;2023-06-26T05:56:18;15.97;;;14.47;;
27728;SDS011;15126;42.186;24.340;2023-06-26T05:58:46;18.17;;;16.20;;
27728;SDS011;15126;42.186;24.340;2023-06-26T06:01:14;16.30;;;14.80;;
27728;SDS011;15126;42.186;24.340;2023-06-26T06:03:41;16.40;;;14.67;;
27728;SDS011;15126;42.186;24.340;2023-06-26T06:06:08;14.37;;;12.90;;
27728;SDS011;15126;42.186;24.340;2023-06-26T06:08:35;14.17;;;12.67;;
27728;SDS011;15126;42.186;24.340;2023-06-26T06:11:02;14.57;;;13.23;;
27728;SDS011;15126;42.186;24.340;2023-06-26T06:13:28;13.50;;;12.13;;
27728;SDS011;15126;42.186;24.340;2023-06-26T06:15:55;13.47;;;12.17;;
27728;SDS011;15126;42.186;24.340;2023-06-26T06:18:23;13.47;;;12.10;;
27728;SDS011;15126;42.186;24.340;2023-06-26T06:20:50;14.13;;;12.73;;
27728;SDS011;15126;42.186;24.340;2023-06-26T06:23:17;14.80;;;12.57;;
27728;SDS011;15126;42.186;24.340;2023-06-26T06:25:44;13.07;;;12.07;;
27728;SDS011;15126;42.186;24.340;2023-06-26T06:28:10;11.57;;;10.60;;
27728;SDS011;15126;42.186;24.340;2023-06-26T06:30:37;12.00;;;10.77;;
27728;SDS011;15126;42.186;24.340;2023-06-26T06:33:04;11.93;;;10.80;;
27728;SDS011;15126;42.186;24.340;2023-06-26T06:35:32;12.33;;;9.33;;
27728;SDS011;15126;42.186;24.340;2023-06-26T06:37:59;13.53;;;8.77;;
27728;SDS011;15126;42.186;24.340;2023-06-26T06:40:25;11.20;;;8.90;;
27728;SDS011;15126;42.186;24.340;2023-06-26T06:42:53;15.10;;;8.30;;
27728;SDS011;15126;42.186;24.340;2023-06-26T06:45:19;15.97;;;9.53;;
27728;SDS011;15126;42.186;24.340;2023-06-26T06:47:46;11.07;;;9.70;;
27728;SDS011;15126;42.186;24.340;2023-06-26T06:50:13;9.60;;;8.47;;
27728;SDS011;15126;42.186;24.340;2023-06-26T06:52:42;11.35;;;9.30;;
27728;SDS011;15126;42.186;24.340;2023-06-26T06:55:09;9.77;;;8.65;;
27728;SDS011;15126;42.186;24.340;2023-06-26T06:57:36;10.07;;;9.27;;
27728;SDS011;15126;42.186;24.340;2023-06-26T07:00:04;11.23;;;8.90;;
27728;SDS011;15126;42.186;24.340;2023-06-26T07:02:35;11.17;;;9.47;;
27728;SDS011;15126;42.186;24.340;2023-06-26T07:05:02;9.60;;;8.80;;
27728;SDS011;15126;42.186;24.340;2023-06-26T07:07:30;8.97;;;8.07;;
27728;SDS011;15126;42.186;24.340;2023-06-26T07:09:59;10.30;;;8.27;;
27728;SDS011;15126;42.186;24.340;2023-06-26T07:12:27;9.73;;;8.73;;
27728;SDS011;15126;42.186;24.340;2023-06-26T07:14:54;12.17;;;9.40;;
27728;SDS011;15126;42.186;24.340;2023-06-26T07:17:22;10.17;;;9.00;;
27728;SDS011;15126;42.186;24.340;2023-06-26T07:19:49;10.40;;;8.90;;
27728;SDS011;15126;42.186;24.340;2023-06-26T07:22:16;11.33;;;9.43;;
27728;SDS011;15126;42.186;24.340;2023-06-26T07:24:45;10.37;;;9.23;;
27728;SDS011;15126;42.186;24.340;2023-06-26T07:27:13;10.07;;;9.00;;
27728;SDS011;15126;42.186;24.340;2023-06-26T07:29:40;9.60;;;8.70;;
27728;SDS011;15126;42.186;24.340;2023-06-26T07:32:07;10.77;;;9.27;;
27728;SDS011;15126;42.186;24.340;2023-06-26T07:34:34;11.37;;;10.13;;
27728;SDS011;15126;42.186;24.340;2023-06-26T07:37:00;10.83;;;9.73;;
27728;SDS011;15126;42.186;24.340;2023-06-26T07:39:30;10.60;;;9.60;;
27728;SDS011;15126;42.186;24.340;2023-06-26T07:41:57;9.70;;;8.80;;
27728;SDS011;15126;42.186;24.340;2023-06-26T07:44:25;10.93;;;8.43;;
27728;SDS011;15126;42.186;24.340;2023-06-26T07:46:52;13.40;;;9.03;;
27728;SDS011;15126;42.186;24.340;2023-06-26T07:49:19;10.10;;;9.17;;
27728;SDS011;15126;42.186;24.340;2023-06-26T07:51:46;8.53;;;7.77;;
27728;SDS011;15126;42.186;24.340;2023-06-26T07:54:13;12.30;;;9.17;;
27728;SDS011;15126;42.186;24.340;2023-06-26T07:56:51;9.90;;;9.00;;
27728;SDS011;15126;42.186;24.340;2023-06-26T07:59:19;11.43;;;10.27;;
27728;SDS011;15126;42.186;24.340;2023-06-26T08:01:48;11.20;;;8.73;;
27728;SDS011;15126;42.186;24.340;2023-06-26T08:04:17;9.23;;;8.30;;
27728;SDS011;15126;42.186;24.340;2023-06-26T08:06:44;10.35;;;8.65;;
27728;SDS011;15126;42.186;24.340;2023-06-26T08:09:11;9.18;;;8.30;;
27728;SDS011;15126;42.186;24.340;2023-06-26T08:11:38;13.40;;;8.30;;
27728;SDS011;15126;42.186;24.340;2023-06-26T08:14:05;9.48;;;8.27;;
27728;SDS011;15126;42.186;24.340;2023-06-26T08:16:32;8.60;;;7.95;;
27728;SDS011;15126;42.186;24.340;2023-06-26T08:19:00;8.23;;;7.53;;
27728;SDS011;15126;42.186;24.340;2023-06-26T08:21:27;8.25;;;7.53;;
27728;SDS011;15126;42.186;24.340;2023-06-26T08:23:54;8.63;;;7.82;;
27728;SDS011;15126;42.186;24.340;2023-06-26T08:26:21;9.73;;;8.73;;
27728;SDS011;15126;42.186;24.340;2023-06-26T08:28:47;8.85;;;8.13;;
27728;SDS011;15126;42.186;24.340;2023-06-26T08:31:15;9.48;;;8.57;;
27728;SDS011;15126;42.186;24.340;2023-06-26T08:33:42;11.63;;;7.63;;
27728;SDS011;15126;42.186;24.340;2023-06-26T08:36:10;8.55;;;7.85;;
27728;SDS011;15126;42.186;24.340;2023-06-26T08:38:37;8.85;;;7.97;;
27728;SDS011;15126;42.186;24.340;2023-06-26T08:41:05;8.07;;;7.45;;
27728;SDS011;15126;42.186;24.340;2023-06-26T08:43:32;12.40;;;7.60;;
27728;SDS011;15126;42.186;24.340;2023-06-26T08:45:59;7.25;;;6.75;;
27728;SDS011;15126;42.186;24.340;2023-06-26T08:48:26;7.93;;;7.28;;
27728;SDS011;15126;42.186;24.340;2023-06-26T08:50:57;10.82;;;6.93;;
27728;SDS011;15126;42.186;24.340;2023-06-26T08:53:38;6.55;;;6.05;;
27728;SDS011;15126;42.186;24.340;2023-06-26T08:56:09;11.98;;;6.07;;
27728;SDS011;15126;42.186;24.340;2023-06-26T08:58:39;12.98;;;7.55;;
27728;SDS011;15126;42.186;24.340;2023-06-26T09:01:09;8.68;;;7.82;;
27728;SDS011;15126;42.186;24.340;2023-06-26T09:03:36;8.00;;;7.32;;
27728;SDS011;15126;42.186;24.340;2023-06-26T09:06:04;7.88;;;7.03;;
27728;SDS011;15126;42.186;24.340;2023-06-26T09:08:30;8.23;;;7.32;;
27728;SDS011;15126;42.186;24.340;2023-06-26T09:10:59;7.75;;;7.05;;
27728;SDS011;15126;42.186;24.340;2023-06-26T09:13:26;8.45;;;7.10;;
27728;SDS011;15126;42.186;24.340;2023-06-26T09:15:55;10.65;;;7.45;;
27728;SDS011;15126;42.186;24.340;2023-06-26T09:18:21;8.90;;;8.07;;
27728;SDS011;15126;42.186;24.340;2023-06-26T09:20:48;8.15;;;7.35;;
27728;SDS011;15126;42.186;24.340;2023-06-26T09:23:16;9.27;;;7.45;;
27728;SDS011;15126;42.186;24.340;2023-06-26T09:25:43;8.02;;;7.38;;
27728;SDS011;15126;42.186;24.340;2023-06-26T09:28:11;8.25;;;6.65;;
27728;SDS011;15126;42.186;24.340;2023-06-26T09:30:38;8.35;;;6.78;;
27728;SDS011;15126;42.186;24.340;2023-06-26T09:33:14;8.20;;;7.38;;
27728;SDS011;15126;42.186;24.340;2023-06-26T09:35:42;7.20;;;6.50;;
27728;SDS011;15126;42.186;24.340;2023-06-26T09:38:09;6.95;;;6.28;;
27728;SDS011;15126;42.186;24.340;2023-06-26T09:40:38;6.50;;;6.05;;
27728;SDS011;15126;42.186;24.340;2023-06-26T09:43:06;7.30;;;6.53;;
27728;SDS011;15126;42.186;24.340;2023-06-26T09:45:35;11.38;;;6.85;;
27728;SDS011;15126;42.186;24.340;2023-06-26T09:48:02;7.25;;;6.25;;
27728;SDS011;15126;42.186;24.340;2023-06-26T09:50:30;6.75;;;6.25;;
27728;SDS011;15126;42.186;24.340;2023-06-26T09:53:04;11.18;;;7.72;;
27728;SDS011;15126;42.186;24.340;2023-06-26T09:55:34;14.95;;;5.90;;
27728;SDS011;15126;42.186;24.340;2023-06-26T09:58:01;7.38;;;6.60;;
27728;SDS011;15126;42.186;24.340;2023-06-26T10:00:29;8.68;;;6.35;;
27728;SDS011;15126;42.186;24.340;2023-06-26T10:02:58;6.45;;;5.85;;
27728;SDS011;15126;42.186;24.340;2023-06-26T10:05:25;8.23;;;5.45;;
27728;SDS011;15126;42.186;24.340;2023-06-26T10:07:52;8.23;;;6.65;;
27728;SDS011;15126;42.186;24.340;2023-06-26T10:10:21;5.90;;;4.82;;
27728;SDS011;15126;42.186;24.340;2023-06-26T10:12:50;7.40;;;5.50;;
27728;SDS011;15126;42.186;24.340;2023-06-26T10:15:20;5.97;;;5.32;;
27728;SDS011;15126;42.186;24.340;2023-06-26T10:17:49;9.75;;;5.93;;
27728;SDS011;15126;42.186;24.340;2023-06-26T10:20:18;7.50;;;5.90;;
27728;SDS011;15126;42.186;24.340;2023-06-26T10:22:46;9.40;;;5.35;;
27728;SDS011;15126;42.186;24.340;2023-06-26T10:25:14;5.53;;;5.03;;
27728;SDS011;15126;42.186;24.340;2023-06-26T10:27:45;10.60;;;5.40;;
27728;SDS011;15126;42.186;24.340;2023-06-26T10:30:19;7.18;;;5.65;;
27728;SDS011;15126;42.186;24.340;2023-06-26T10:32:49;6.07;;;5.07;;
27728;SDS011;15126;42.186;24.340;2023-06-26T10:35:18;6.45;;;5.85;;
27728;SDS011;15126;42.186;24.340;2023-06-26T10:37:48;9.18;;;6.35;;
27728;SDS011;15126;42.186;24.340;2023-06-26T10:40:21;7.07;;;5.53;;
27728;SDS011;15126;42.186;24.340;2023-06-26T10:43:05;5.47;;;4.95;;
27728;SDS011;15126;42.186;24.340;2023-06-26T10:45:33;10.45;;;5.82;;
27728;SDS011;15126;42.186;24.340;2023-06-26T10:48:00;8.52;;;5.75;;
27728;SDS011;15126;42.186;24.340;2023-06-26T10:50:29;7.22;;;5.78;;
27728;SDS011;15126;42.186;24.340;2023-06-26T10:53:09;5.80;;;5.22;;
27728;SDS011;15126;42.186;24.340;2023-06-26T10:55:42;7.18;;;5.47;;
27728;SDS011;15126;42.186;24.340;2023-06-26T10:58:32;5.75;;;5.30;;
27728;SDS011;15126;42.186;24.340;2023-06-26T11:04:06;5.82;;;4.70;;
27728;SDS011;15126;42.186;24.340;2023-06-26T11:06:35;5.75;;;5.25;;
27728;SDS011;15126;42.186;24.340;2023-06-26T11:09:06;6.00;;;5.20;;
27728;SDS011;15126;42.186;24.340;2023-06-26T11:14:24;8.07;;;5.90;;
27728;SDS011;15126;42.186;24.340;2023-06-26T11:16:52;6.50;;;4.90;;
27728;SDS011;15126;42.186;24.340;2023-06-26T11:19:22;7.72;;;5.28;;
27728;SDS011;15126;42.186;24.340;2023-06-26T11:21:50;6.90;;;5.50;;
27728;SDS011;15126;42.186;24.340;2023-06-26T11:24:17;7.82;;;5.05;;
27728;SDS011;15126;42.186;24.340;2023-06-26T11:26:44;5.47;;;4.72;;
27728;SDS011;15126;42.186;24.340;2023-06-26T11:29:11;7.13;;;4.82;;
27728;SDS011;15126;42.186;24.340;2023-06-26T11:31:39;6.95;;;4.75;;
27728;SDS011;15126;42.186;24.340;2023-06-26T11:34:08;5.97;;;5.18;;
27728;SDS011;15126;42.186;24.340;2023-06-26T11:36:37;11.60;;;5.10;;
27728;SDS011;15126;42.186;24.340;2023-06-26T11:39:06;6.13;;;4.72;;
27728;SDS011;15126;42.186;24.340;2023-06-26T11:41:34;5.35;;;4.10;;
27728;SDS011;15126;42.186;24.340;2023-06-26T11:44:02;8.82;;;4.93;;
27728;SDS011;15126;42.186;24.340;2023-06-26T11:46:30;5.90;;;4.07;;
27728;SDS011;15126;42.186;24.340;2023-06-26T11:48:57;5.88;;;3.38;;
27728;SDS011;15126;42.186;24.340;2023-06-26T11:51:26;4.95;;;3.78;;
27728;SDS011;15126;42.186;24.340;2023-06-26T11:53:54;6.53;;;4.20;;
27728;SDS011;15126;42.186;24.340;2023-06-26T11:56:23;5.85;;;3.97;;
27728;SDS011;15126;42.186;24.340;2023-06-26T11:58:57;7.18;;;3.67;;
27728;SDS011;15126;42.186;24.340;2023-06-26T12:01:26;5.63;;;3.83;;
27728;SDS011;15126;42.186;24.340;2023-06-26T12:03:59;7.93;;;4.85;;
27728;SDS011;15126;42.186;24.340;2023-06-26T12:06:28;6.88;;;4.82;;
27728;SDS011;15126;42.186;24.340;2023-06-26T12:08:55;8.15;;;4.82;;
27728;SDS011;15126;42.186;24.340;2023-06-26T12:11:25;9.77;;;4.93;;
27728;SDS011;15126;42.186;24.340;2023-06-26T12:13:54;10.88;;;4.60;;
27728;SDS011;15126;42.186;24.340;2023-06-26T12:16:21;8.10;;;4.45;;
27728;SDS011;15126;42.186;24.340;2023-06-26T12:18:48;8.70;;;4.40;;
27728;SDS011;15126;42.186;24.340;2023-06-26T12:24:18;5.80;;;5.20;;
27728;SDS011;15126;42.186;24.340;2023-06-26T12:26:49;7.65;;;4.30;;
27728;SDS011;15126;42.186;24.340;2023-06-26T12:29:18;8.57;;;5.53;;
27728;SDS011;15126;42.186;24.340;2023-06-26T12:31:49;5.38;;;4.90;;
27728;SDS011;15126;42.186;24.340;2023-06-26T12:34:18;5.50;;;4.85;;
27728;SDS011;15126;42.186;24.340;2023-06-26T12:36:49;4.63;;;4.15;;
27728;SDS011;15126;42.186;24.340;2023-06-26T12:39:17;6.22;;;5.55;;
27728;SDS011;15126;42.186;24.340;2023-06-26T12:41:48;8.80;;;4.57;;
27728;SDS011;15126;42.186;24.340;2023-06-26T12:44:16;10.18;;;4.63;;
27728;SDS011;15126;42.186;24.340;2023-06-26T12:46:45;5.47;;;4.72;;
27728;SDS011;15126;42.186;24.340;2023-06-26T12:49:13;13.20;;;6.72;;
27728;SDS011;15126;42.186;24.340;2023-06-26T12:51:40;4.15;;;3.75;;
27728;SDS011;15126;42.186;24.340;2023-06-26T12:54:08;6.20;;;4.50;;
27728;SDS011;15126;42.186;24.340;2023-06-26T12:56:35;6.32;;;4.60;;
27728;SDS011;15126;42.186;24.340;2023-06-26T12:59:03;8.20;;;5.10;;
27728;SDS011;15126;42.186;24.340;2023-06-26T13:01:30;5.40;;;4.80;;
27728;SDS011;15126;42.186;24.340;2023-06-26T13:03:57;9.07;;;5.78;;
27728;SDS011;15126;42.186;24.340;2023-06-26T13:06:24;6.90;;;4.60;;
27728;SDS011;15126;42.186;24.340;2023-06-26T13:08:51;8.15;;;5.03;;
27728;SDS011;15126;42.186;24.340;2023-06-26T13:11:18;5.55;;;5.05;;
27728;SDS011;15126;42.186;24.340;2023-06-26T13:13:46;6.57;;;4.45;;
27728;SDS011;15126;42.186;24.340;2023-06-26T13:16:15;7.28;;;4.95;;
27728;SDS011;15126;42.186;24.340;2023-06-26T13:18:43;6.33;;;5.03;;
27728;SDS011;15126;42.186;24.340;2023-06-26T13:21:10;12.43;;;6.00;;
27728;SDS011;15126;42.186;24.340;2023-06-26T13:23:37;15.77;;;6.93;;
27728;SDS011;15126;42.186;24.340;2023-06-26T13:26:04;12.10;;;6.50;;
27728;SDS011;15126;42.186;24.340;2023-06-26T13:28:31;12.73;;;6.77;;
27728;SDS011;15126;42.186;24.340;2023-06-26T13:30:58;12.53;;;7.33;;
27728;SDS011;15126;42.186;24.340;2023-06-26T13:33:26;34.63;;;11.37;;
27728;SDS011;15126;42.186;24.340;2023-06-26T13:35:59;25.03;;;11.87;;
27728;SDS011;15126;42.186;24.340;2023-06-26T13:40:55;15.17;;;9.30;;
27728;SDS011;15126;42.186;24.340;2023-06-26T13:43:23;15.53;;;7.90;;
27728;SDS011;15126;42.186;24.340;2023-06-26T13:45:50;10.50;;;7.63;;
27728;SDS011;15126;42.186;24.340;2023-06-26T13:48:20;8.83;;;6.40;;
27728;SDS011;15126;42.186;24.340;2023-06-26T13:50:48;11.37;;;6.73;;
27728;SDS011;15126;42.186;24.340;2023-06-26T13:53:15;11.40;;;7.90;;
27728;SDS011;15126;42.186;24.340;2023-06-26T13:55:42;13.03;;;8.03;;
27728;SDS011;15126;42.186;24.340;2023-06-26T13:58:09;17.60;;;7.67;;
27728;SDS011;15126;42.186;24.340;2023-06-26T14:00:36;13.37;;;9.00;;
27728;SDS011;15126;42.186;24.340;2023-06-26T14:03:03;15.50;;;9.50;;
27728;SDS011;15126;42.186;24.340;2023-06-26T14:05:31;9.67;;;8.03;;
27728;SDS011;15126;42.186;24.340;2023-06-26T14:08:01;16.83;;;9.60;;
27728;SDS011;15126;42.186;24.340;2023-06-26T14:10:29;12.43;;;9.27;;
27728;SDS011;15126;42.186;24.340;2023-06-26T14:12:56;9.30;;;8.40;;
27728;SDS011;15126;42.186;24.340;2023-06-26T14:15:23;11.10;;;8.40;;
27728;SDS011;15126;42.186;24.340;2023-06-26T14:17:50;9.03;;;7.63;;
27728;SDS011;15126;42.186;24.340;2023-06-26T14:20:17;9.90;;;8.00;;
27728;SDS011;15126;42.186;24.340;2023-06-26T14:22:46;9.90;;;8.43;;
27728;SDS011;15126;42.186;24.340;2023-06-26T14:25:14;10.87;;;8.10;;
27728;SDS011;15126;42.186;24.340;2023-06-26T14:27:42;9.07;;;7.93;;
27728;SDS011;15126;42.186;24.340;2023-06-26T14:30:09;10.33;;;8.03;;
27728;SDS011;15126;42.186;24.340;2023-06-26T14:32:37;8.80;;;7.93;;
27728;SDS011;15126;42.186;24.340;2023-06-26T14:35:04;14.10;;;10.33;;
27728;SDS011;15126;42.186;24.340;2023-06-26T14:37:31;10.17;;;8.07;;